createdAt,value
2022-11-01T00:01:01.324Z,2.77
2022-11-01T00:04:25.309Z,2.77
2022-11-01T00:07:48.767Z,2.47
2022-11-01T00:11:16.102Z,2.43
2022-11-01T00:14:39.882Z,2.57
2022-11-01T00:18:05.135Z,2.30
2022-11-01T00:21:28.922Z,2.47
2022-11-01T00:24:54.870Z,2.00
2022-11-01T00:28:18.741Z,3.03
2022-11-01T00:31:42.628Z,2.57
2022-11-01T00:35:08.338Z,2.10
2022-11-01T00:38:32.097Z,1.97
2022-11-01T00:41:56.037Z,2.13
2022-11-01T00:45:20.168Z,2.53
2022-11-01T00:48:43.716Z,2.20
2022-11-01T00:52:08.890Z,2.20
2022-11-01T00:55:32.647Z,2.73
2022-11-01T00:58:56.462Z,2.07
2022-11-01T01:02:20.065Z,2.50
2022-11-01T01:05:43.882Z,2.20
2022-11-01T01:09:08.663Z,2.30
2022-11-01T01:12:32.469Z,2.10
2022-11-01T01:15:57.326Z,2.10
2022-11-01T01:19:21.326Z,2.20
2022-11-01T01:22:45.075Z,2.20
2022-11-01T01:26:11.877Z,2.30
2022-11-01T01:29:37.454Z,2.40
2022-11-01T01:33:00.977Z,2.07
2022-11-01T01:36:24.802Z,2.47
2022-11-01T01:39:48.722Z,2.10
2022-11-01T01:43:14.153Z,2.30
2022-11-01T01:46:37.630Z,2.33
2022-11-01T01:50:07.655Z,2.60
2022-11-01T01:53:35.678Z,2.70
2022-11-01T01:56:59.975Z,3.07
2022-11-01T02:00:25.402Z,2.20
2022-11-01T02:03:49.873Z,2.13
2022-11-01T02:07:13.893Z,2.43
2022-11-01T02:10:38.101Z,2.43
2022-11-01T02:14:02.904Z,2.90
2022-11-01T02:17:40.485Z,2.23
2022-11-01T02:21:44.375Z,2.20
2022-11-01T02:25:31.616Z,2.10
2022-11-01T02:29:15.445Z,1.87
2022-11-01T02:33:04.480Z,1.90
2022-11-01T02:36:38.896Z,2.00
2022-11-01T02:40:09.516Z,1.80
2022-11-01T02:43:43.355Z,2.30
2022-11-01T02:47:08.321Z,2.20
2022-11-01T02:50:39.842Z,2.47
2022-11-01T02:54:07.889Z,2.40
2022-11-01T02:57:36.266Z,2.40
2022-11-01T03:00:59.728Z,2.20
2022-11-01T03:04:23.514Z,2.57
2022-11-01T03:07:57.952Z,2.80
2022-11-01T03:11:26.398Z,2.30
2022-11-01T03:14:58.822Z,2.30
2022-11-01T03:18:33.518Z,2.57
2022-11-01T03:22:07.977Z,2.43
2022-11-01T03:25:39.990Z,2.63
2022-11-01T03:29:09.314Z,2.70
2022-11-01T03:32:39.609Z,3.10
2022-11-01T03:36:13.467Z,2.70
2022-11-01T03:39:44.598Z,2.87
2022-11-01T03:43:16.391Z,2.70
2022-11-01T03:46:40.111Z,2.60
2022-11-01T03:50:15.842Z,2.40
2022-11-01T03:53:39.680Z,2.77
2022-11-01T03:57:03.109Z,2.43
2022-11-01T04:00:31.144Z,2.60
2022-11-01T04:03:54.557Z,2.50
2022-11-01T04:07:17.970Z,2.87
2022-11-01T04:10:42.030Z,3.40
2022-11-01T04:14:22.355Z,2.60
2022-11-01T04:18:04.734Z,2.33
2022-11-01T04:21:31.267Z,1.80
2022-11-01T04:24:54.701Z,1.87
2022-11-01T04:28:18.443Z,1.83
2022-11-01T04:31:42.051Z,1.70
2022-11-01T04:35:11.389Z,1.70
2022-11-01T04:38:34.857Z,1.93
2022-11-01T04:41:58.282Z,1.73
2022-11-01T04:45:22.077Z,1.90
2022-11-01T04:48:45.599Z,1.50
2022-11-01T04:52:10.424Z,1.60
2022-11-01T04:55:34.391Z,1.50
2022-11-01T04:58:58.417Z,1.33
2022-11-01T05:02:24.332Z,1.23
2022-11-01T05:05:47.893Z,1.60
2022-11-01T05:09:12.678Z,1.27
2022-11-01T05:12:36.495Z,1.57
2022-11-01T05:16:18.926Z,1.10
2022-11-01T05:19:43.446Z,1.33
2022-11-01T05:23:07.112Z,1.47
2022-11-01T05:26:32.026Z,1.10
2022-11-01T05:29:55.555Z,1.10
2022-11-01T05:33:19.159Z,1.47
2022-11-01T05:36:42.647Z,1.40
2022-11-01T05:40:07.912Z,1.40
2022-11-01T05:43:32.715Z,1.10
2022-11-01T05:46:56.231Z,1.20
2022-11-01T05:50:19.995Z,0.90
2022-11-01T05:53:43.436Z,1.00
2022-11-01T05:57:07.207Z,1.00
2022-11-01T06:00:32.557Z,0.97
2022-11-01T06:03:58.210Z,1.30
2022-11-01T06:07:21.874Z,1.10
2022-11-01T06:10:45.363Z,1.07
2022-11-01T06:14:12.862Z,1.10
2022-11-01T06:17:37.694Z,0.93
2022-11-01T06:21:01.254Z,0.80
2022-11-01T06:24:25.241Z,0.90
2022-11-01T06:27:49.296Z,0.77
2022-11-01T06:31:13.714Z,0.70
2022-11-01T06:34:42.312Z,1.10
2022-11-01T06:38:10.185Z,0.80
2022-11-01T06:41:34.322Z,0.87
2022-11-01T06:44:57.874Z,0.80
2022-11-01T06:48:21.366Z,0.70
2022-11-01T06:51:46.202Z,0.83
2022-11-01T06:55:10.371Z,0.90
2022-11-01T06:58:33.798Z,0.90
2022-11-01T07:01:57.473Z,0.80
2022-11-01T07:05:20.971Z,0.70
2022-11-01T07:08:45.851Z,0.80
2022-11-01T07:12:09.426Z,0.77
2022-11-01T07:15:33.543Z,0.80
2022-11-01T07:18:57.203Z,0.70
2022-11-01T07:22:20.775Z,0.70
2022-11-01T07:25:45.830Z,0.80
2022-11-01T07:29:09.279Z,0.70
2022-11-01T07:32:36.269Z,0.70
2022-11-01T07:36:03.054Z,0.90
2022-11-01T07:39:26.504Z,0.80
2022-11-01T07:42:51.303Z,0.80
2022-11-01T07:46:14.852Z,0.90
2022-11-01T07:49:38.270Z,0.90
2022-11-01T07:53:02.445Z,0.80
2022-11-01T07:56:25.901Z,1.10
2022-11-01T07:59:50.751Z,1.30
2022-11-01T08:03:16.918Z,1.00
2022-11-01T08:06:40.819Z,0.97
2022-11-01T08:10:05.075Z,0.90
2022-11-01T08:13:29.635Z,0.90
2022-11-01T08:16:57.886Z,0.70
2022-11-01T08:20:21.351Z,0.80
2022-11-01T08:23:44.950Z,0.80
2022-11-01T08:27:08.473Z,0.77
2022-11-01T08:30:32.970Z,0.70
2022-11-01T08:33:57.874Z,0.60
2022-11-01T08:37:21.420Z,0.70
2022-11-01T08:40:44.869Z,0.70
2022-11-01T08:44:08.316Z,0.60
2022-11-01T08:47:31.773Z,0.70
2022-11-01T08:50:56.613Z,0.70
2022-11-01T08:54:20.558Z,0.80
2022-11-01T08:57:44.157Z,0.80
2022-11-01T09:01:07.651Z,0.70
2022-11-01T09:04:31.269Z,0.80
2022-11-01T09:08:00.343Z,0.77
2022-11-01T09:11:26.487Z,0.60
2022-11-01T09:14:50.025Z,0.80
2022-11-01T09:18:13.512Z,0.77
2022-11-01T09:21:37.070Z,0.70
2022-11-01T09:25:01.909Z,0.70
2022-11-01T09:28:27.827Z,0.70
2022-11-01T09:31:54.459Z,0.67
2022-11-01T09:35:18.567Z,0.73
2022-11-01T09:38:42.013Z,0.80
2022-11-01T09:42:14.379Z,0.80
2022-11-01T09:45:38.355Z,0.70
2022-11-01T09:49:05.559Z,0.70
2022-11-01T09:52:29.229Z,0.73
2022-11-01T09:56:04.194Z,0.80
2022-11-01T09:59:38.283Z,0.70
2022-11-01T10:03:33.694Z,0.70
2022-11-01T10:07:08.432Z,0.70
2022-11-01T10:10:40.609Z,0.80
2022-11-01T10:14:20.057Z,0.60
2022-11-01T10:17:53.704Z,0.90
2022-11-01T10:21:21.658Z,0.70
2022-11-01T10:24:56.931Z,0.80
2022-11-01T10:28:30.546Z,0.70
2022-11-01T10:31:56.070Z,0.73
2022-11-01T10:35:28.914Z,0.80
2022-11-01T10:42:46.719Z,0.83
2022-11-01T10:46:18.709Z,0.80
2022-11-01T10:50:05.508Z,0.90
2022-11-01T10:53:44.433Z,0.80
2022-11-01T10:57:15.099Z,0.93
2022-11-01T11:00:42.215Z,1.00
2022-11-01T11:04:11.468Z,0.90
2022-11-01T11:07:35.167Z,0.90
2022-11-01T11:11:06.401Z,0.80
2022-11-01T11:14:34.803Z,1.23
2022-11-01T11:18:03.417Z,1.10
2022-11-01T11:21:28.136Z,0.90
2022-11-01T11:24:52.876Z,0.90
2022-11-01T11:28:27.768Z,0.90
2022-11-01T11:31:59.148Z,0.90
2022-11-01T11:35:24.478Z,0.80
2022-11-01T11:38:51.245Z,0.80
2022-11-01T11:42:19.177Z,1.00
2022-11-01T11:45:44.276Z,1.10
2022-11-01T11:49:27.207Z,0.80
2022-11-01T11:52:57.791Z,1.00
2022-11-01T11:56:22.717Z,0.70
2022-11-01T11:59:53.365Z,0.70
2022-11-01T12:03:19.878Z,0.73
2022-11-01T12:06:46.349Z,1.00
2022-11-01T12:10:34.022Z,1.20
2022-11-01T12:14:06.749Z,0.93
2022-11-01T12:17:36.483Z,1.00
2022-11-01T12:21:01.462Z,0.80
2022-11-01T12:24:28.297Z,1.00
2022-11-01T12:28:05.171Z,1.07
2022-11-01T12:31:31.695Z,1.00
2022-11-01T12:35:01.856Z,1.07
2022-11-01T12:38:48.191Z,1.20
2022-11-01T12:42:20.055Z,1.20
2022-11-01T12:45:50.989Z,1.00
2022-11-01T12:49:29.971Z,1.10
2022-11-01T12:52:59.794Z,1.03
2022-11-01T12:56:25.015Z,1.60
2022-11-01T12:59:49.021Z,1.37
2022-11-01T13:03:30.343Z,1.30
2022-11-01T13:07:22.062Z,1.40
2022-11-01T13:10:49.076Z,1.10
2022-11-01T13:14:37.243Z,1.13
2022-11-01T13:18:15.339Z,1.20
2022-11-01T13:21:49.630Z,1.20
2022-11-01T13:25:23.552Z,1.20
2022-11-01T13:29:03.881Z,1.20
2022-11-01T13:32:36.761Z,1.17
2022-11-01T13:36:11.254Z,1.00
2022-11-01T13:39:55.285Z,1.00
2022-11-01T13:43:23.461Z,0.90
2022-11-01T13:47:17.951Z,1.10
2022-11-01T13:51:16.672Z,0.90
2022-11-01T13:54:50.568Z,0.80
2022-11-01T13:58:19.268Z,1.20
2022-11-01T14:01:42.883Z,1.17
2022-11-01T14:05:08.509Z,1.20
2022-11-01T14:08:39.168Z,0.97
2022-11-01T14:12:36.105Z,0.73
2022-11-01T14:16:23.763Z,1.00
2022-11-01T14:19:48.237Z,0.80
2022-11-01T14:23:52.379Z,0.90
2022-11-01T14:27:35.138Z,0.93
2022-11-01T14:30:58.558Z,1.00
2022-11-01T14:34:29.991Z,0.90
2022-11-01T14:37:57.307Z,0.87
2022-11-01T14:41:23.918Z,0.80
2022-11-01T14:44:52.585Z,0.90
2022-11-01T14:48:24.658Z,1.00
2022-11-01T14:51:57.634Z,0.90
2022-11-01T14:55:25.881Z,0.90
2022-11-01T14:58:50.518Z,0.90
2022-11-01T15:02:15.645Z,0.87
2022-11-01T15:05:48.835Z,0.73
2022-11-01T15:09:21.825Z,1.00
2022-11-01T15:12:49.343Z,1.03
2022-11-01T15:16:18.414Z,1.07
2022-11-01T15:19:45.233Z,1.00
2022-11-01T15:23:12.065Z,0.97
2022-11-01T15:26:36.278Z,1.30
2022-11-01T15:30:00.176Z,1.00
2022-11-01T15:33:27.842Z,0.97
2022-11-01T15:36:54.072Z,0.90
2022-11-01T15:40:30.599Z,0.93
2022-11-01T15:43:56.129Z,1.00
2022-11-01T15:47:25.810Z,1.00
2022-11-01T15:50:55.564Z,1.10
2022-11-01T15:54:37.682Z,1.20
2022-11-01T15:58:06.989Z,1.53
2022-11-01T16:01:31.240Z,1.40
2022-11-01T16:04:56.919Z,1.00
2022-11-01T16:08:25.501Z,0.90
2022-11-01T16:11:50.693Z,1.00
2022-11-01T16:15:23.623Z,0.90
2022-11-01T16:18:47.976Z,1.00
2022-11-01T16:22:37.573Z,1.20
2022-11-01T16:26:03.614Z,1.03
2022-11-01T16:29:44.188Z,0.93
2022-11-01T16:33:29.662Z,1.00
2022-11-01T16:36:53.766Z,0.87
2022-11-01T16:40:26.100Z,0.93
2022-11-01T16:43:53.679Z,1.10
2022-11-01T16:47:19.310Z,1.13
2022-11-01T16:50:44.663Z,0.90
2022-11-01T16:54:12.119Z,1.10
2022-11-01T16:57:37.258Z,1.10
2022-11-01T17:01:01.492Z,0.90
2022-11-01T17:04:28.717Z,1.00
2022-11-01T17:07:52.525Z,1.10
2022-11-01T17:11:16.328Z,1.00
2022-11-01T17:18:13.769Z,0.93
2022-11-01T17:21:40.213Z,0.90
2022-11-01T17:25:05.245Z,1.07
2022-11-01T17:28:29.371Z,1.30
2022-11-01T17:31:53.329Z,1.00
2022-11-01T17:35:19.378Z,1.30
2022-11-01T17:38:50.257Z,1.20
2022-11-01T17:42:13.751Z,1.20
2022-11-01T17:45:38.650Z,0.90
2022-11-01T17:49:02.516Z,0.97
2022-11-01T17:52:26.433Z,0.97
2022-11-01T17:55:57.582Z,0.80
2022-11-01T17:59:21.554Z,0.77
2022-11-01T18:02:45.350Z,0.80
2022-11-01T18:06:09.116Z,0.97
2022-11-01T18:09:32.930Z,1.40
2022-11-01T18:13:32.324Z,1.40
2022-11-01T18:17:02.195Z,0.90
2022-11-01T18:20:38.834Z,1.10
2022-11-01T18:24:13.582Z,1.10
2022-11-01T18:27:40.107Z,0.93
2022-11-01T18:31:14.842Z,0.90
2022-11-01T18:34:46.985Z,1.03
2022-11-01T18:38:23.509Z,1.10
2022-11-01T18:41:49.639Z,1.10
2022-11-01T18:45:25.596Z,1.03
2022-11-01T18:49:00.727Z,1.00
2022-11-01T18:52:25.901Z,0.97
2022-11-01T18:55:50.139Z,1.30
2022-11-01T18:59:16.592Z,1.27
2022-11-01T19:02:41.362Z,1.02
2022-11-01T19:06:18.451Z,1.30
2022-11-01T19:09:44.678Z,1.00
2022-11-01T19:13:18.168Z,1.70
2022-11-01T19:16:42.311Z,1.33
2022-11-01T19:20:23.699Z,1.60
2022-11-01T19:23:53.616Z,1.23
2022-11-01T19:27:23.828Z,1.60
2022-11-01T19:30:50.652Z,1.00
2022-11-01T19:34:21.952Z,1.33
2022-11-01T19:37:49.729Z,1.20
2022-11-01T19:41:22.450Z,0.93
2022-11-01T19:44:46.397Z,1.10
2022-11-01T19:48:14.331Z,0.83
2022-11-01T19:51:38.125Z,1.00
2022-11-01T19:55:02.007Z,0.90
2022-11-01T19:58:30.980Z,0.83
2022-11-01T20:01:57.411Z,0.90
2022-11-01T20:05:30.899Z,0.97
2022-11-01T20:08:57.532Z,0.70
2022-11-01T20:12:22.256Z,0.70
2022-11-01T20:15:50.666Z,0.80
2022-11-01T20:19:17.490Z,0.80
2022-11-01T20:22:43.908Z,0.83
2022-11-01T20:26:07.896Z,0.80
2022-11-01T20:29:31.394Z,1.00
2022-11-01T20:32:56.654Z,1.03
2022-11-01T20:36:30.776Z,0.90
2022-11-01T20:39:55.787Z,0.87
2022-11-01T20:43:25.721Z,1.10
2022-11-01T20:46:50.108Z,1.00
2022-11-01T20:50:17.460Z,0.80
2022-11-01T20:53:41.445Z,0.80
2022-11-01T20:57:05.583Z,1.00
2022-11-01T21:00:29.389Z,1.17
2022-11-01T21:03:55.214Z,0.87
2022-11-01T21:07:20.571Z,0.70
2022-11-01T21:10:45.576Z,0.90
2022-11-01T21:14:14.421Z,0.73
2022-11-01T21:17:39.205Z,0.90
2022-11-01T21:21:45.252Z,0.90
2022-11-01T21:25:23.113Z,0.80
2022-11-01T21:28:49.068Z,0.70
2022-11-01T21:32:29.719Z,0.80
2022-11-01T21:35:54.488Z,0.70
2022-11-01T21:39:22.002Z,0.67
2022-11-01T21:42:47.281Z,1.10
2022-11-01T21:46:17.646Z,0.87
2022-11-01T21:49:41.449Z,0.70
2022-11-01T21:53:05.199Z,0.87
2022-11-01T21:56:29.238Z,1.00
2022-11-01T21:59:54.094Z,0.90
2022-11-01T22:03:17.967Z,1.00
2022-11-01T22:06:42.476Z,1.10
2022-11-01T22:10:06.947Z,0.80
2022-11-01T22:13:30.740Z,0.83
2022-11-01T22:16:56.722Z,1.07
2022-11-01T22:20:20.744Z,1.00
2022-11-01T22:23:44.869Z,0.73
2022-11-01T22:27:08.651Z,1.07
2022-11-01T22:30:32.471Z,0.80
2022-11-01T22:33:58.931Z,1.00
2022-11-01T22:37:22.643Z,1.03
2022-11-01T22:40:51.255Z,0.80
2022-11-01T22:44:17.680Z,0.73
2022-11-01T22:47:41.475Z,0.87
2022-11-01T22:51:17.630Z,1.00
2022-11-01T22:54:44.188Z,0.83
2022-11-01T22:58:33.330Z,0.80
2022-11-01T23:02:02.820Z,0.80
2022-11-01T23:05:28.018Z,0.90
2022-11-01T23:08:56.227Z,0.80
2022-11-01T23:12:50.920Z,0.77
2022-11-01T23:16:28.461Z,0.80
2022-11-01T23:19:56.594Z,0.70
2022-11-01T23:23:21.998Z,0.70
2022-11-01T23:26:47.159Z,0.60
2022-11-01T23:30:11.928Z,0.97
2022-11-01T23:33:39.809Z,1.00
2022-11-01T23:37:03.527Z,0.93
2022-11-01T23:40:33.732Z,0.80
2022-11-01T23:44:02.498Z,0.83
2022-11-01T23:47:34.908Z,0.90
2022-11-01T23:50:59.104Z,0.80
2022-11-01T23:54:34.354Z,0.70
2022-11-01T23:58:00.719Z,0.60
